Time;durP1;ratioP1;P1;durP2;ratioP2;P2;SDS_P1;SDS_P2;PMS_P1;PMS_P2;Temp;Humidity;BMP_temperature;BMP_pressure;BME280_temperature;BME280_humidity;BME280_pressure;Samples;Min_cycle;Max_cycle;Signal;HPM_P1;HPM_P2
2021/08/17 00:01:47;;;;;;;59.50;24.77;;;;;;;12.00;100.00;100407.00;5015637;28;20093;-70
2021/08/17 00:04:17;;;;;;;57.47;25.80;;;;;;;11.94;100.00;100407.38;5015881;28;20062;-70
2021/08/17 00:06:56;;;;;;;57.70;25.15;;;;;;;11.93;100.00;100411.03;4999499;28;20148;-69
2021/08/17 00:09:22;;;;;;;56.55;23.15;;;;;;;11.93;100.00;100411.88;5014282;28;20475;-69
2021/08/17 00:11:49;;;;;;;52.65;25.58;;;;;;;11.97;100.00;100409.84;5015715;28;20056;-69
2021/08/17 00:14:16;;;;;;;62.20;23.23;;;;;;;11.98;100.00;100416.91;5014351;28;20427;-69
2021/08/17 00:16:43;;;;;;;62.45;25.33;;;;;;;11.94;100.00;100408.22;5015253;28;20337;-68
2021/08/17 00:19:09;;;;;;;53.05;23.67;;;;;;;11.97;100.00;100412.53;5015278;28;20034;-68
2021/08/17 00:21:37;;;;;;;54.15;23.45;;;;;;;11.95;100.00;100407.28;5014040;28;20046;-70
2021/08/17 00:24:04;;;;;;;55.50;23.85;;;;;;;11.92;100.00;100409.28;5015315;28;20096;-69
2021/08/17 00:26:31;;;;;;;60.80;24.23;;;;;;;11.91;100.00;100416.47;5013829;28;20076;-69
2021/08/17 00:29:00;;;;;;;60.05;24.30;;;;;;;11.91;100.00;100415.59;5014808;28;20048;-69
2021/08/17 00:31:27;;;;;;;57.17;24.23;;;;;;;11.87;100.00;100412.25;5014051;28;20104;-69
2021/08/17 00:33:53;;;;;;;54.72;24.08;;;;;;;11.89;100.00;100414.84;5014993;28;20045;-70
2021/08/17 00:36:20;;;;;;;56.83;24.15;;;;;;;11.79;100.00;100402.06;5015050;28;20052;-69
2021/08/17 00:38:47;;;;;;;60.88;25.15;;;;;;;11.81;100.00;100408.16;5013811;28;20042;-69
2021/08/17 00:41:14;;;;;;;55.67;23.98;;;;;;;11.80;100.00;100408.25;5014993;28;20052;-69
2021/08/17 00:43:41;;;;;;;61.95;26.23;;;;;;;11.76;100.00;100409.41;5014865;28;20103;-69
2021/08/17 00:46:08;;;;;;;54.63;26.70;;;;;;;11.78;100.00;100402.13;5013827;28;20050;-69
2021/08/17 00:48:36;;;;;;;60.42;25.65;;;;;;;11.75;100.00;100407.66;5014661;28;20112;-69
2021/08/17 00:51:05;;;;;;;62.92;26.73;;;;;;;11.73;100.00;100399.75;5014897;28;20054;-69
2021/08/17 00:53:31;;;;;;;53.28;24.10;;;;;;;11.67;100.00;100397.47;5014666;28;20053;-69
2021/08/17 00:55:59;;;;;;;60.42;26.05;;;;;;;11.67;100.00;100400.97;4997450;28;20123;-70
2021/08/17 00:58:27;;;;;;;56.38;25.52;;;;;;;11.71;100.00;100398.97;5013354;28;20046;-68
2021/08/17 01:00:56;;;;;;;61.30;26.50;;;;;;;11.72;100.00;100402.50;5013485;28;20042;-68
2021/08/17 01:03:24;;;;;;;54.78;24.90;;;;;;;11.71;100.00;100398.97;5014588;28;20108;-69
2021/08/17 01:05:51;;;;;;;66.47;26.63;;;;;;;11.67;100.00;100403.66;5013384;28;20045;-69
2021/08/17 01:08:18;;;;;;;61.28;25.50;;;;;;;11.64;100.00;100400.31;5014582;28;20073;-69
2021/08/17 01:10:45;;;;;;;57.75;25.13;;;;;;;11.71;100.00;100404.31;5013500;28;20104;-70
2021/08/17 01:13:11;;;;;;;62.38;26.83;;;;;;;11.73;100.00;100398.88;5014489;28;20050;-69
2021/08/17 01:15:38;;;;;;;59.97;26.30;;;;;;;11.70;100.00;100407.09;5014476;28;20392;-69
2021/08/17 01:18:07;;;;;;;58.35;27.27;;;;;;;11.71;100.00;100401.66;5013259;28;20079;-68
2021/08/17 01:20:36;;;;;;;57.83;25.48;;;;;;;11.62;100.00;100391.53;5014392;28;20041;-69
2021/08/17 01:23:02;;;;;;;61.90;25.90;;;;;;;11.56;100.00;100382.09;5014235;28;20057;-69
2021/08/17 01:25:34;;;;;;;59.53;27.10;;;;;;;11.67;100.00;100400.13;5013392;28;20331;-70
2021/08/17 01:28:00;;;;;;;58.22;25.42;;;;;;;11.65;100.00;100396.69;4996890;28;20100;-70
2021/08/17 01:30:27;;;;;;;57.40;26.50;;;;;;;11.58;100.00;100400.69;5014387;28;20038;-69
2021/08/17 01:32:54;;;;;;;62.67;26.50;;;;;;;11.52;100.00;100401.94;5013242;28;20480;-70
2021/08/17 01:35:21;;;;;;;54.88;24.83;;;;;;;11.55;100.00;100407.94;5014350;28;20312;-70
2021/08/17 01:37:48;;;;;;;64.20;26.85;;;;;;;11.55;100.00;100407.06;5014496;28;20324;-69
2021/08/17 01:40:15;;;;;;;64.82;25.48;;;;;;;11.50;100.00;100396.66;5016980;28;20038;-69
2021/08/17 01:42:44;;;;;;;62.55;26.95;;;;;;;11.42;100.00;100380.25;5018152;28;20407;-69
2021/08/17 01:45:13;;;;;;;61.63;26.13;;;;;;;11.57;100.00;100409.66;5018313;28;20046;-69
2021/08/17 01:47:40;;;;;;;63.72;25.73;;;;;;;11.55;100.00;100409.75;5016718;28;20053;-70
2021/08/17 01:50:07;;;;;;;63.63;27.20;;;;;;;11.51;100.00;100402.88;5018053;28;20049;-70
2021/08/17 01:52:34;;;;;;;53.60;26.05;;;;;;;11.49;100.00;100402.13;5018010;28;20042;-69
2021/08/17 01:55:03;;;;;;;58.03;25.45;;;;;;;11.47;100.00;100396.00;5016880;28;20119;-69
2021/08/17 01:57:30;;;;;;;62.38;26.30;;;;;;;11.50;100.00;100404.69;5017955;28;20042;-69
2021/08/17 01:59:57;;;;;;;66.75;26.13;;;;;;;11.49;100.00;100402.13;5016603;28;20045;-70
2021/08/17 02:02:23;;;;;;;63.03;25.52;;;;;;;11.39;100.00;100389.31;5000422;28;20644;-68
2021/08/17 02:04:50;;;;;;;64.30;24.90;;;;;;;11.44;100.00;100399.72;5017632;28;20064;-70
2021/08/17 02:07:17;;;;;;;57.33;23.80;;;;;;;11.46;100.00;100395.16;5016598;28;20089;-69
2021/08/17 02:09:44;;;;;;;61.90;25.95;;;;;;;11.42;100.00;100396.28;5017595;28;20064;-70
2021/08/17 02:12:11;;;;;;;57.03;25.45;;;;;;;11.41;100.00;100400.78;5016604;28;20403;-69
2021/08/17 02:14:37;;;;;;;55.88;23.88;;;;;;;11.45;100.00;100395.25;5017520;28;20096;-70
2021/08/17 02:17:04;;;;;;;61.63;24.50;;;;;;;11.35;100.00;100384.25;5017680;28;20053;-69
2021/08/17 02:19:31;;;;;;;65.28;25.08;;;;;;;11.39;100.00;100391.13;5032950;28;20385;-69
2021/08/17 02:21:58;;;;;;;61.92;24.85;;;;;;;11.40;100.00;100393.69;5017839;28;20324;-68
2021/08/17 02:24:25;;;;;;;58.45;24.10;;;;;;;11.41;100.00;100395.44;5017752;28;20046;-68
2021/08/17 02:26:52;;;;;;;55.88;23.92;;;;;;;11.42;100.00;100396.28;5017475;28;20046;-69
2021/08/17 02:29:19;;;;;;;51.20;23.05;;;;;;;11.40;100.00;100398.19;5016088;28;20168;-68
2021/08/17 02:31:45;;;;;;;57.63;24.33;;;;;;;11.41;100.00;100395.44;5016371;28;20370;-68
2021/08/17 02:34:12;;;;;;;56.42;22.98;;;;;;;11.42;100.00;100390.94;5017259;28;20052;-68
2021/08/17 02:36:39;;;;;;;53.55;23.92;;;;;;;11.42;100.00;100396.28;5016004;28;20116;-68
2021/08/17 02:39:06;;;;;;;53.58;23.88;;;;;;;11.34;100.00;100391.41;5017242;28;20045;-70
2021/08/17 02:41:33;;;;;;;57.00;23.85;;;;;;;11.37;100.00;100399.25;5016033;28;20068;-68
2021/08/17 02:43:59;;;;;;;52.05;24.92;;;;;;;11.35;100.00;100401.16;5017108;28;20478;-68
2021/08/17 02:46:26;;;;;;;53.33;23.50;;;;;;;11.34;100.00;100396.75;5017117;28;20046;-68
2021/08/17 02:48:53;;;;;;;48.45;21.40;;;;;;;11.39;100.00;100397.31;5015759;28;20046;-70
2021/08/17 02:51:20;;;;;;;54.58;22.40;;;;;;;11.24;100.00;100390.25;5016476;28;20104;-70
2021/08/17 02:53:47;;;;;;;54.67;22.98;;;;;;;11.34;100.00;100398.56;5016894;28;20056;-69
2021/08/17 02:56:13;;;;;;;50.47;21.92;;;;;;;11.34;100.00;100407.44;4999635;28;20088;-70
2021/08/17 02:58:40;;;;;;;52.58;22.33;;;;;;;11.31;100.00;100399.59;5015735;28;20066;-69
2021/08/17 03:01:07;;;;;;;55.00;22.60;;;;;;;11.32;100.00;100395.13;5015644;28;20053;-70
2021/08/17 03:03:34;;;;;;;54.05;21.95;;;;;;;11.22;100.00;100374.31;5016747;28;20053;-70
2021/08/17 03:06:01;;;;;;;60.78;22.23;;;;;;;11.33;100.00;100387.00;5016650;28;20049;-68
2021/08/17 03:08:28;;;;;;;49.83;22.00;;;;;;;11.34;100.00;100395.91;5015333;28;20117;-70
2021/08/17 03:10:54;;;;;;;52.85;21.95;;;;;;;11.30;100.00;100392.56;5016504;28;20076;-70
2021/08/17 03:13:21;;;;;;;53.38;22.67;;;;;;;11.26;100.00;100386.53;5016362;28;20053;-69
2021/08/17 03:15:48;;;;;;;50.22;21.55;;;;;;;11.24;100.00;100385.75;5016280;28;20050;-68
2021/08/17 03:18:15;;;;;;;57.47;23.77;;;;;;;11.35;100.00;100387.78;5016433;28;20046;-69
2021/08/17 03:20:42;;;;;;;52.78;21.80;;;;;;;11.35;100.00;100381.56;5015323;28;20041;-67
2021/08/17 03:23:13;;;;;;;57.05;23.20;;;;;;;11.33;100.00;100384.34;5016364;28;20038;-69
2021/08/17 03:25:41;;;;;;;50.58;21.52;;;;;;;11.31;100.00;100383.56;5016332;28;20054;-69
2021/08/17 03:28:07;;;;;;;54.05;22.63;;;;;;;11.35;100.00;100386.91;5016162;28;20045;-67
2021/08/17 03:30:36;;;;;;;51.90;21.77;;;;;;;11.37;100.00;100387.69;5016030;28;20423;-69
2021/08/17 03:33:03;;;;;;;52.58;23.35;;;;;;;11.39;100.00;100391.13;5015897;28;20100;-69
2021/08/17 03:35:30;;;;;;;54.50;22.98;;;;;;;11.38;100.00;100384.03;5016054;28;20042;-68
2021/08/17 03:37:57;;;;;;;61.17;25.40;;;;;;;11.39;100.00;100386.63;5020651;28;20434;-68
2021/08/17 03:40:24;;;;;;;53.45;22.55;;;;;;;11.38;100.00;100392.94;5015898;28;20050;-68
2021/08/17 03:42:51;;;;;;;62.17;26.00;;;;;;;11.39;100.00;100380.44;5014733;28;20100;-69
2021/08/17 03:45:20;;;;;;;55.22;24.48;;;;;;;11.42;100.00;100385.59;5015815;28;20049;-69
2021/08/17 03:47:48;;;;;;;61.67;25.60;;;;;;;11.44;100.00;100396.19;5015926;28;20068;-69
2021/08/17 03:50:17;;;;;;;60.20;24.73;;;;;;;11.46;100.00;100396.94;5015638;28;20072;-69
2021/08/17 03:52:44;;;;;;;62.45;24.17;;;;;;;11.52;100.00;100388.56;5015908;28;20049;-70
2021/08/17 03:55:12;;;;;;;60.42;24.88;;;;;;;11.57;100.00;100385.59;5015713;28;20046;-68
2021/08/17 03:57:39;;;;;;;58.83;24.67;;;;;;;11.57;100.00;100393.63;5015702;28;20042;-67
2021/08/17 04:00:11;;;;;;;65.03;25.80;;;;;;;11.54;100.00;100384.84;5015483;28;20107;-69
2021/08/17 04:02:39;;;;;;;57.17;26.60;;;;;;;11.57;100.00;100383.81;5014743;28;20482;-67
2021/08/17 04:05:06;;;;;;;71.35;26.85;;;;;;;11.64;100.00;100384.25;5015906;28;20107;-69
2021/08/17 04:07:33;;;;;;;65.97;26.55;;;;;;;11.66;100.00;100382.38;5015542;28;20049;-68
2021/08/17 04:10:00;;;;;;;66.88;25.65;;;;;;;11.60;100.00;100377.41;5014357;28;20047;-67
2021/08/17 04:12:27;;;;;;;64.55;27.45;;;;;;;11.71;100.00;100368.72;5047587;28;20277;-69
2021/08/17 04:14:54;;;;;;;62.30;25.42;;;;;;;11.73;100.00;100378.38;5012379;28;20096;-68
2021/08/17 04:17:21;;;;;;;62.72;27.02;;;;;;;11.72;100.00;100387.31;4995727;28;20787;-69
2021/08/17 04:19:47;;;;;;;59.38;25.45;;;;;;;11.76;100.00;100399.56;5013283;28;20100;-68
2021/08/17 04:22:14;;;;;;;65.47;26.38;;;;;;;11.79;100.00;100404.72;5002555;28;20600;-68
2021/08/17 04:24:41;;;;;;;63.85;26.05;;;;;;;11.78;100.00;100386.09;5014954;28;20050;-67
2021/08/17 04:27:08;;;;;;;61.17;25.35;;;;;;;11.85;100.00;100384.75;5013743;28;20053;-69
2021/08/17 04:29:37;;;;;;;66.72;26.58;;;;;;;11.85;100.00;100391.91;5015198;28;20038;-68
2021/08/17 04:32:06;;;;;;;55.47;25.70;;;;;;;11.88;100.00;100403.25;5014990;28;20046;-68
2021/08/17 04:34:33;;;;;;;74.03;26.75;;;;;;;11.92;100.00;100398.59;5015357;28;20062;-68
2021/08/17 04:37:00;;;;;;;63.42;25.88;;;;;;;11.99;100.00;100394.56;5014704;28;20053;-69
2021/08/17 04:39:27;;;;;;;67.35;26.73;;;;;;;11.98;100.00;100386.66;5015082;28;20060;-69
2021/08/17 04:41:54;;;;;;;59.67;24.85;;;;;;;12.04;100.00;100389.81;5014680;28;20430;-69
2021/08/17 04:44:20;;;;;;;65.05;26.45;;;;;;;12.02;100.00;100393.50;5015008;28;20434;-69
2021/08/17 04:46:47;;;;;;;66.38;26.60;;;;;;;12.08;100.00;100401.19;5013122;28;20439;-69
2021/08/17 04:49:14;;;;;;;61.13;25.42;;;;;;;12.06;100.00;100398.63;5012873;28;20054;-69
2021/08/17 04:51:41;;;;;;;65.00;27.27;;;;;;;12.04;100.00;100403.19;5012585;28;20058;-69
2021/08/17 04:54:08;;;;;;;61.10;26.10;;;;;;;12.05;100.00;100393.38;5012201;28;20482;-69
2021/08/17 04:56:35;;;;;;;62.92;25.83;;;;;;;12.13;100.00;100409.78;4995695;28;20123;-69
2021/08/17 04:59:02;;;;;;;67.80;25.65;;;;;;;12.16;100.00;100414.09;5013531;28;20049;-69
2021/08/17 05:01:30;;;;;;;56.05;24.33;;;;;;;12.14;100.00;100421.34;5012548;28;20045;-69
2021/08/17 05:03:58;;;;;;;61.05;25.38;;;;;;;12.25;100.00;100436.72;5012298;28;20046;-69
2021/08/17 05:06:25;;;;;;;58.55;25.80;;;;;;;12.31;100.00;100433.66;5014119;28;20123;-69
2021/08/17 05:08:52;;;;;;;53.50;24.83;;;;;;;12.38;100.00;100426.09;5013300;28;20104;-69
2021/08/17 05:11:19;;;;;;;55.65;24.40;;;;;;;12.34;100.00;100434.31;5029590;28;20054;-69
2021/08/17 05:13:45;;;;;;;59.25;25.00;;;;;;;12.33;100.00;100435.25;5013227;28;20423;-69
2021/08/17 05:16:12;;;;;;;55.47;25.00;;;;;;;12.39;100.00;100435.81;5000683;28;20073;-69
2021/08/17 05:18:39;;;;;;;60.45;23.85;;;;;;;12.42;100.00;100430.28;5026056;28;20078;-69
2021/08/17 05:21:06;;;;;;;56.85;23.42;;;;;;;12.39;100.00;100438.50;5005702;28;20046;-70
2021/08/17 05:23:33;;;;;;;58.22;24.02;;;;;;;12.41;100.00;100432.09;5013101;28;20050;-68
2021/08/17 05:26:00;;;;;;;51.92;23.27;;;;;;;12.43;100.00;100443.56;5014316;28;20042;-68
2021/08/17 05:28:26;;;;;;;55.03;23.10;;;;;;;12.49;100.00;100450.34;5013094;28;20049;-69
2021/08/17 05:30:53;;;;;;;53.92;24.38;;;;;;;12.48;100.00;100443.28;5014233;28;20042;-73
2021/08/17 05:33:20;;;;;;;57.72;23.33;;;;;;;12.56;100.00;100430.25;5010726;28;20088;-73
2021/08/17 05:35:47;;;;;;;54.13;24.15;;;;;;;12.55;100.00;100433.91;5008142;28;20374;-68
2021/08/17 05:38:13;;;;;;;52.72;23.42;;;;;;;12.60;100.00;100439.78;5008510;28;20112;-68
2021/08/17 05:40:40;;;;;;;62.15;24.33;;;;;;;12.52;100.00;100434.06;5014319;28;20065;-68
2021/08/17 05:43:08;;;;;;;58.50;23.08;;;;;;;12.57;100.00;100440.00;5013892;28;20046;-67
2021/08/17 05:45:56;;;;;;;56.78;22.35;;;;;;;12.50;100.00;100436.84;5013098;28;20109;-68
2021/08/17 05:48:23;;;;;;;51.33;22.17;;;;;;;12.57;100.00;100437.31;5013709;28;20328;-68
2021/08/17 05:50:50;;;;;;;58.17;23.52;;;;;;;12.54;100.00;100437.53;5009208;28;20049;-67
2021/08/17 05:53:16;;;;;;;46.63;21.92;;;;;;;12.59;100.00;100439.91;5040585;28;20057;-68
2021/08/17 05:55:43;;;;;;;51.50;22.73;;;;;;;12.67;100.00;100442.06;4995585;28;20046;-68
2021/08/17 05:58:10;;;;;;;49.13;21.90;;;;;;;12.74;100.00;100438.03;4996266;28;20053;-67
2021/08/17 06:00:37;;;;;;;55.10;22.90;;;;;;;12.77;100.00;100432.47;5012607;28;20042;-71
2021/08/17 06:03:04;;;;;;;51.88;21.65;;;;;;;12.80;100.00;100434.94;5024630;28;20073;-67
2021/08/17 06:05:31;;;;;;;49.17;21.50;;;;;;;12.85;100.00;100440.84;5006003;28;20454;-72
2021/08/17 06:07:58;;;;;;;50.67;21.17;;;;;;;12.89;100.00;100441.50;5007371;28;20124;-72
2021/08/17 06:10:25;;;;;;;41.90;20.50;;;;;;;12.82;100.00;100441.06;5013828;28;20074;-73
2021/08/17 06:12:52;;;;;;;49.05;22.17;;;;;;;12.77;100.00;100437.84;5014147;28;20060;-73
2021/08/17 06:15:19;;;;;;;45.90;21.52;;;;;;;12.76;100.00;100442.31;5011234;28;20055;-75
2021/08/17 06:17:47;;;;;;;46.78;22.15;;;;;;;12.76;100.00;100444.16;5003736;28;20042;-74
2021/08/17 06:20:15;;;;;;;49.85;21.77;;;;;;;12.65;100.00;100439.50;5011675;28;20582;-75
2021/08/17 06:22:42;;;;;;;47.83;21.50;;;;;;;12.76;100.00;100453.03;5011141;28;20054;-78
2021/08/17 06:25:10;;;;;;;49.65;21.08;;;;;;;12.79;100.00;100456.50;5011314;28;20061;-69
2021/08/17 06:27:37;;;;;;;46.28;21.33;;;;;;;12.71;100.00;100459.66;5016061;28;20045;-70
2021/08/17 06:30:06;;;;;;;45.03;21.13;;;;;;;12.68;100.00;100454.53;5016945;28;20042;-75
2021/08/17 06:32:52;;;;;;;48.50;21.45;;;;;;;12.70;100.00;100455.28;5011278;28;20053;-75
2021/08/17 06:35:19;;;;;;;47.08;21.27;;;;;;;12.69;100.00;100462.44;5017744;28;20038;-73
2021/08/17 06:37:46;;;;;;;45.60;20.58;;;;;;;12.76;100.00;100454.88;5031774;28;20038;-68
2021/08/17 06:40:14;;;;;;;42.50;20.33;;;;;;;12.80;100.00;100453.69;5016404;28;20058;-68
2021/08/17 06:42:41;;;;;;;46.78;20.45;;;;;;;12.82;100.00;100462.50;5012736;28;20124;-68
2021/08/17 06:45:08;;;;;;;48.35;21.52;;;;;;;12.91;100.00;100450.31;5016516;28;20057;-67
2021/08/17 06:47:47;;;;;;;44.85;21.33;;;;;;;12.83;100.00;100436.56;5008015;28;20462;-68
2021/08/17 06:50:34;;;;;;;45.53;20.42;;;;;;;12.94;100.00;100454.59;5012490;28;20116;-68
2021/08/17 06:53:01;;;;;;;47.25;21.88;;;;;;;12.97;100.00;100444.53;5016273;28;20042;-68
2021/08/17 06:55:27;;;;;;;41.78;20.60;;;;;;;13.00;99.88;100457.75;5016406;28;20497;-68
2021/08/17 06:57:54;;;;;;;40.55;19.58;;;;;;;13.09;99.81;100461.63;5015379;28;20515;-68
2021/08/17 07:00:22;;;;;;;44.25;20.42;;;;;;;13.10;99.50;100452.63;5016908;28;20046;-68
2021/08/17 07:02:49;;;;;;;46.88;21.08;;;;;;;13.13;99.67;100454.25;5015637;28;20050;-67
2021/08/17 07:05:29;;;;;;;54.60;21.27;;;;;;;13.17;99.36;100453.94;5029916;28;20073;-67
2021/08/17 07:07:56;;;;;;;43.80;20.90;;;;;;;13.14;99.40;100451.44;5016381;28;20099;-67
2021/08/17 07:10:23;;;;;;;41.17;19.85;;;;;;;13.24;99.04;100442.81;5016804;28;20123;-67
2021/08/17 07:13:10;;;;;;;46.72;21.15;;;;;;;13.18;99.54;100436.88;5015646;28;20041;-68
2021/08/17 07:15:37;;;;;;;42.53;20.05;;;;;;;13.15;99.29;100431.75;5048435;28;20057;-68
2021/08/17 07:18:04;;;;;;;48.63;20.73;;;;;;;13.24;100.00;100427.56;5015345;28;20382;-67
2021/08/17 07:20:31;;;;;;;46.47;20.73;;;;;;;13.26;99.42;100422.09;5016477;28;20128;-68
2021/08/17 07:22:58;;;;;;;46.17;20.08;;;;;;;13.24;98.72;100413.31;5016351;28;20077;-67
2021/08/17 07:25:25;;;;;;;43.88;19.50;;;;;;;13.31;98.52;100422.66;5016322;28;20103;-68
2021/08/17 07:27:53;;;;;;;45.65;20.63;;;;;;;13.37;99.13;100414.19;5015132;28;20049;-67
2021/08/17 07:30:20;;;;;;;42.80;19.75;;;;;;;13.34;98.93;100417.06;5016240;28;20492;-68
2021/08/17 07:32:47;;;;;;;43.10;20.70;;;;;;;13.37;98.11;100422.22;5016416;28;20461;-67
2021/08/17 07:35:17;;;;;;;43.40;18.88;;;;;;;13.38;99.07;100415.91;5016226;28;20054;-67
2021/08/17 07:37:45;;;;;;;40.55;20.85;;;;;;;13.40;98.74;100413.97;5016083;28;20064;-67
2021/08/17 07:40:13;;;;;;;39.50;19.70;;;;;;;13.53;98.29;100397.94;5015102;28;20038;-67
2021/08/17 07:42:40;;;;;;;40.08;19.30;;;;;;;13.62;97.66;100412.50;5016189;28;20049;-67
2021/08/17 07:45:11;;;;;;;43.38;20.38;;;;;;;13.66;97.05;100422.06;5015878;28;20050;-68
2021/08/17 07:47:39;;;;;;;40.33;18.95;;;;;;;13.69;97.17;100432.56;5015916;28;20074;-67
2021/08/17 07:50:08;;;;;;;40.65;20.08;;;;;;;13.71;97.24;100441.38;5015778;28;20145;-68
2021/08/17 07:52:35;;;;;;;40.38;19.00;;;;;;;13.74;97.01;100444.81;5015808;28;20429;-67
2021/08/17 07:55:08;;;;;;;47.55;19.67;;;;;;;13.80;96.33;100447.06;5015850;28;20117;-69
2021/08/17 07:57:38;;;;;;;37.05;18.73;;;;;;;13.88;96.22;100459.94;4996169;28;20046;-69
2021/08/17 08:00:07;;;;;;;41.83;18.70;;;;;;;13.90;95.75;100458.84;4996090;28;20050;-67
2021/08/17 08:02:35;;;;;;;39.83;19.67;;;;;;;13.84;96.31;100448.56;4996068;28;20054;-67
2021/08/17 08:05:03;;;;;;;39.95;19.27;;;;;;;13.94;95.40;100457.69;4994877;28;20080;-68
2021/08/17 08:07:29;;;;;;;38.15;17.88;;;;;;;13.97;96.34;100460.16;4996073;28;20046;-68
2021/08/17 08:09:56;;;;;;;41.33;19.60;;;;;;;13.98;95.67;100456.50;4994716;28;20038;-69
2021/08/17 08:12:23;;;;;;;39.88;19.42;;;;;;;14.06;94.83;100460.47;4996017;28;20072;-68
2021/08/17 08:14:50;;;;;;;40.70;18.27;;;;;;;14.08;94.45;100462.06;4995952;28;20050;-68
2021/08/17 08:17:17;;;;;;;41.67;18.73;;;;;;;14.11;94.27;100455.63;4995883;28;20513;-68
2021/08/17 08:19:44;;;;;;;39.05;17.85;;;;;;;14.11;95.22;100463.69;4994716;28;20085;-68
2021/08/17 08:22:11;;;;;;;46.40;20.13;;;;;;;14.15;94.68;100467.00;5008879;28;20496;-67
2021/08/17 08:24:38;;;;;;;44.10;19.05;;;;;;;14.18;94.29;100466.78;5014238;28;20054;-69
2021/08/17 08:27:05;;;;;;;42.10;20.50;;;;;;;14.35;93.58;100450.31;5015373;28;20084;-68
2021/08/17 08:29:33;;;;;;;40.05;18.30;;;;;;;14.38;93.70;100430.41;5015138;28;20046;-68
2021/08/17 08:32:00;;;;;;;44.63;19.73;;;;;;;14.56;92.39;100432.75;5015293;28;20435;-68
2021/08/17 08:34:27;;;;;;;44.00;20.25;;;;;;;14.57;92.47;100429.94;5014353;28;20096;-68
2021/08/17 08:36:54;;;;;;;39.67;19.27;;;;;;;14.78;91.88;100427.50;5015062;28;20046;-68
2021/08/17 08:39:23;;;;;;;45.75;17.92;;;;;;;14.96;90.70;100419.06;5015100;28;20084;-68
2021/08/17 08:41:53;;;;;;;;;;;;;;;15.09;89.30;100423.50;5014394;28;20052;-68
2021/08/17 08:44:21;;;;;;;35.83;16.92;;;;;;;15.17;89.04;100418.41;5015053;28;19925;-67
2021/08/17 08:46:49;;;;;;;35.80;17.80;;;;;;;15.15;88.89;100418.50;5014940;28;20422;-68
2021/08/17 08:49:18;;;;;;;37.72;19.13;;;;;;;15.10;89.25;100431.47;5014389;28;20427;-68
2021/08/17 08:51:44;;;;;;;40.83;18.67;;;;;;;15.16;88.83;100425.59;5015042;28;20045;-68
2021/08/17 08:54:11;;;;;;;35.15;17.92;;;;;;;15.22;89.36;100429.66;5014959;28;20053;-68
2021/08/17 08:56:38;;;;;;;41.28;19.23;;;;;;;15.22;89.09;100421.59;5014762;28;20045;-68
2021/08/17 08:59:05;;;;;;;38.03;18.88;;;;;;;15.12;88.56;100401.75;5015075;28;20342;-68
2021/08/17 09:01:32;;;;;;;41.65;18.45;;;;;;;15.28;89.18;100418.44;5014646;28;20041;-68
2021/08/17 09:03:59;;;;;;;39.10;19.45;;;;;;;15.29;88.95;100414.78;5029772;28;20062;-68
2021/08/17 09:06:28;;;;;;;46.13;18.27;;;;;;;15.42;89.16;100429.97;5014436;28;20053;-68
2021/08/17 09:09:16;;;;;;;38.90;19.88;;;;;;;15.40;87.89;100423.81;5014671;28;20133;-69
2021/08/17 09:11:46;;;;;;;36.92;18.95;;;;;;;15.33;87.58;100424.31;5013331;28;20137;-67
2021/08/17 09:14:15;;;;;;;40.70;19.58;;;;;;;15.27;86.05;100432.88;5014886;28;20042;-68
2021/08/17 09:16:43;;;;;;;38.25;18.42;;;;;;;15.47;84.81;100422.38;5014417;28;20045;-68
2021/08/17 09:19:38;;;;;;;37.75;18.50;;;;;;;15.72;84.84;100437.47;5014647;28;20434;-68
2021/08/17 09:22:20;;;;;;;36.63;17.98;;;;;;;15.97;82.94;100427.47;5014574;28;20626;-68
2021/08/17 09:24:50;;;;;;;36.92;17.95;;;;;;;15.86;83.26;100424.75;5014622;28;20409;-69
2021/08/17 09:27:20;;;;;;;41.83;18.48;;;;;;;15.94;83.21;100435.81;5014445;28;20449;-68
2021/08/17 09:29:58;;;;;;;40.72;18.25;;;;;;;15.99;82.95;100430.06;5014684;28;20128;-71
2021/08/17 09:32:26;;;;;;;36.55;18.48;;;;;;;15.98;82.51;100423.81;5014679;28;20052;-69
2021/08/17 09:34:56;;;;;;;34.03;16.73;;;;;;;16.35;81.62;100416.44;5014401;28;20042;-70
2021/08/17 09:37:32;;;;;;;37.95;17.40;;;;;;;16.37;79.14;100417.16;5013570;28;20410;-70
2021/08/17 09:40:02;;;;;;;35.40;16.77;;;;;;;16.37;80.26;100425.25;5013313;28;20033;-70
2021/08/17 09:42:31;;;;;;;37.30;17.50;;;;;;;16.40;78.95;100415.06;5013372;28;20046;-69
2021/08/17 09:45:15;;;;;;;35.50;17.35;;;;;;;16.22;78.75;100417.44;5014562;28;20411;-69
2021/08/17 09:47:53;;;;;;;32.97;16.55;;;;;;;16.27;78.54;100414.38;5014397;28;20697;-69
2021/08/17 09:50:27;;;;;;;29.40;16.25;;;;;;;16.30;79.21;100411.44;5014298;28;20046;-68
2021/08/17 09:53:17;;;;;;;38.47;18.05;;;;;;;16.07;78.60;100411.44;5014356;28;20358;-68
2021/08/17 09:55:46;;;;;;;30.48;15.38;;;;;;;16.25;78.71;100416.34;5014272;28;20053;-69
2021/08/17 09:58:26;;;;;;;35.70;17.50;;;;;;;16.10;79.67;100427.38;5014189;28;20084;-69
2021/08/17 10:00:56;;;;;;;39.03;17.63;;;;;;;16.05;80.25;100409.84;5015963;28;20065;-69
2021/08/17 10:03:25;;;;;;;33.72;16.67;;;;;;;16.11;79.78;100423.69;5018168;28;20104;-69
2021/08/17 10:05:53;;;;;;;37.20;17.30;;;;;;;16.04;80.70;100433.25;5016898;28;20389;-70
2021/08/17 10:08:22;;;;;;;32.90;16.75;;;;;;;15.91;79.27;100421.69;5017928;28;20053;-67
2021/08/17 10:10:52;;;;;;;30.25;15.65;;;;;;;15.89;78.10;100433.47;5017804;28;20052;-69
2021/08/17 10:13:21;;;;;;;30.27;15.65;;;;;;;15.85;79.01;100421.22;5008706;28;20370;-70
2021/08/17 10:15:49;;;;;;;29.30;16.10;;;;;;;15.87;79.35;100438.06;5017005;28;20096;-69
2021/08/17 10:18:19;;;;;;;33.90;16.23;;;;;;;15.84;79.65;100430.25;5017670;28;20133;-69
2021/08/17 10:20:49;;;;;;;34.42;16.77;;;;;;;15.75;79.91;100436.38;5017410;28;20046;-68
2021/08/17 10:23:17;;;;;;;27.17;16.40;;;;;;;15.77;79.46;100423.66;5017637;28;20074;-69
2021/08/17 10:25:49;;;;;;;29.02;15.13;;;;;;;15.76;79.42;100424.63;5032644;28;20045;-69
2021/08/17 10:28:35;;;;;;;31.05;16.25;;;;;;;15.72;79.64;100424.03;5017634;28;20100;-69
2021/08/17 10:31:14;;;;;;;30.85;16.05;;;;;;;15.75;79.98;100420.22;5008815;28;20080;-69
2021/08/17 10:33:42;;;;;;;29.55;15.50;;;;;;;15.66;80.08;100423.63;5017361;28;20132;-69
2021/08/17 10:36:10;;;;;;;31.15;16.50;;;;;;;15.61;79.98;100424.88;5017358;28;20042;-68
2021/08/17 10:38:40;;;;;;;28.38;14.90;;;;;;;15.42;79.37;100424.59;5017229;28;20116;-69
2021/08/17 10:41:08;;;;;;;29.43;14.97;;;;;;;15.39;79.33;100414.91;5017182;28;20505;-68
2021/08/17 10:43:35;;;;;;;26.77;13.05;;;;;;;15.42;78.59;100411.97;5017136;28;20518;-68
2021/08/17 10:46:06;;;;;;;25.05;13.20;;;;;;;15.55;78.15;100400.25;5017096;28;20077;-69
2021/08/17 10:48:45;;;;;;;22.98;12.48;;;;;;;15.61;76.83;100411.41;5016332;28;20108;-68
2021/08/17 10:51:18;;;;;;;22.95;12.60;;;;;;;15.61;77.08;100424.00;5016997;28;20438;-68
2021/08/17 10:53:47;;;;;;;30.40;13.52;;;;;;;15.53;77.43;100429.13;5017148;28;20046;-69
2021/08/17 10:56:18;;;;;;;24.50;13.65;;;;;;;15.50;78.58;100423.97;5016984;28;20125;-68
2021/08/17 10:58:48;;;;;;;26.05;13.02;;;;;;;15.48;78.19;100421.41;5017268;28;20053;-69
2021/08/17 11:01:48;;;;;;;25.02;13.38;;;;;;;15.36;78.58;100423.22;5017041;28;20045;-68
2021/08/17 11:04:16;;;;;;;31.47;14.00;;;;;;;15.44;78.75;100418.13;5015769;28;20948;-68
2021/08/17 11:06:56;;;;;;;32.00;15.65;;;;;;;15.52;78.91;100413.97;5017022;28;20137;-68
2021/08/17 11:09:28;;;;;;;28.15;12.80;;;;;;;15.61;78.30;100408.72;5016127;28;20050;-68
2021/08/17 11:12:03;;;;;;;31.95;14.57;;;;;;;15.67;78.04;100393.91;5015099;28;20037;-69